createdAt,value
2023-05-01T00:01:00.454Z,46.00
2023-05-01T00:03:30.804Z,46.75
2023-05-01T00:06:04.382Z,45.75
2023-05-01T00:08:33.251Z,48.50
2023-05-01T00:11:04.329Z,45.50
2023-05-01T00:13:33.915Z,47.25
2023-05-01T00:16:02.911Z,45.00
2023-05-01T00:18:32.948Z,48.75
2023-05-01T00:21:02.033Z,47.50
2023-05-01T00:23:30.605Z,47.75
2023-05-01T00:25:59.613Z,45.25
2023-05-01T00:28:28.245Z,48.00
2023-05-01T00:30:58.536Z,44.75
2023-05-01T00:33:27.196Z,45.50
2023-05-01T00:35:57.659Z,42.75
2023-05-01T00:38:26.233Z,45.50
2023-05-01T00:40:55.486Z,46.00
2023-05-01T00:43:24.127Z,46.00
2023-05-01T00:45:53.101Z,43.25
2023-05-01T00:48:21.742Z,44.00
2023-05-01T00:50:52.079Z,47.00
2023-05-01T00:53:23.306Z,43.75
2023-05-01T00:55:52.469Z,45.00
2023-05-01T00:58:21.149Z,44.75
2023-05-01T01:00:50.779Z,46.00
2023-05-01T01:03:19.505Z,45.25
2023-05-01T01:05:54.604Z,44.00
2023-05-01T01:08:31.906Z,45.50
2023-05-01T01:11:13.018Z,44.25
2023-05-01T01:13:48.049Z,42.50
2023-05-01T01:16:22.742Z,43.50
2023-05-01T01:18:57.675Z,42.00
2023-05-01T01:21:33.138Z,45.25
2023-05-01T01:24:37.307Z,46.00
2023-05-01T01:27:46.908Z,46.00
2023-05-01T01:30:59.313Z,47.00
2023-05-01T01:33:57.233Z,46.00
2023-05-01T01:36:40.167Z,47.75
2023-05-01T01:39:24.427Z,48.25
2023-05-01T01:41:54.679Z,46.25
2023-05-01T01:44:41.950Z,47.00
2023-05-01T01:47:15.491Z,44.00
2023-05-01T01:49:51.352Z,47.00
2023-05-01T01:52:23.273Z,48.00
2023-05-01T01:54:58.617Z,44.00
2023-05-01T01:57:29.540Z,46.25
2023-05-01T01:59:59.388Z,44.50
2023-05-01T02:02:29.792Z,45.75
2023-05-01T02:05:01.064Z,46.50
2023-05-01T02:07:31.943Z,46.25
2023-05-01T02:10:03.956Z,44.50
2023-05-01T02:12:34.904Z,44.00
2023-05-01T02:15:04.879Z,40.50
2023-05-01T02:17:34.684Z,43.50
2023-05-01T02:20:08.180Z,45.25
2023-05-01T02:22:38.755Z,44.75
2023-05-01T02:25:10.542Z,45.25
2023-05-01T02:27:41.986Z,45.00
2023-05-01T02:30:12.535Z,45.00
2023-05-01T02:32:41.431Z,43.25
2023-05-01T02:35:11.947Z,45.75
2023-05-01T02:37:41.309Z,41.00
2023-05-01T02:40:14.526Z,43.50
2023-05-01T02:42:45.011Z,44.75
2023-05-01T02:45:20.933Z,45.25
2023-05-01T02:47:52.835Z,32.75
2023-05-01T02:50:24.648Z,43.25
2023-05-01T02:52:53.682Z,44.50
2023-05-01T02:55:58.585Z,43.25
2023-05-01T02:58:27.381Z,44.50
2023-05-01T03:00:56.354Z,44.50
2023-05-01T03:03:26.334Z,43.00
2023-05-01T03:05:57.614Z,45.25
2023-05-01T03:08:26.172Z,42.25
2023-05-01T03:10:55.192Z,35.25
2023-05-01T03:13:23.849Z,41.50
2023-05-01T03:15:53.262Z,44.50
2023-05-01T03:18:22.382Z,45.25
2023-05-01T03:20:57.640Z,41.75
2023-05-01T03:23:28.019Z,42.25
2023-05-01T03:25:57.523Z,46.25
2023-05-01T03:28:26.067Z,42.00
2023-05-01T03:30:55.319Z,45.25
2023-05-01T03:33:24.253Z,43.00
2023-05-01T03:36:03.324Z,46.75
2023-05-01T03:38:33.525Z,42.25
2023-05-01T03:41:11.449Z,44.00
2023-05-01T03:43:49.218Z,42.25
2023-05-01T03:46:34.093Z,40.00
2023-05-01T03:49:03.066Z,43.25
2023-05-01T03:51:39.222Z,44.00
2023-05-01T03:54:08.091Z,45.00
2023-05-01T03:56:52.062Z,42.50
2023-05-01T03:59:21.932Z,43.00
2023-05-01T04:01:51.387Z,43.50
2023-05-01T04:04:20.733Z,43.00
2023-05-01T04:06:58.354Z,39.25
2023-05-01T04:09:27.046Z,41.50
2023-05-01T04:11:56.223Z,43.25
2023-05-01T04:14:25.092Z,64.50
2023-05-01T04:16:54.208Z,52.25
2023-05-01T04:19:23.025Z,39.25
2023-05-01T04:21:59.731Z,41.75
2023-05-01T04:24:28.325Z,44.00
2023-05-01T04:26:58.616Z,38.75
2023-05-01T04:29:27.562Z,37.75
2023-05-01T04:31:56.594Z,42.00
2023-05-01T04:34:29.274Z,38.75
2023-05-01T04:37:00.056Z,35.25
2023-05-01T04:39:28.990Z,35.75
2023-05-01T04:41:59.178Z,40.00
2023-05-01T04:44:28.284Z,41.00
2023-05-01T04:46:57.913Z,80.50
2023-05-01T04:49:26.488Z,55.67
2023-05-01T04:51:55.524Z,76.75
2023-05-01T04:54:28.055Z,46.25
2023-05-01T04:56:57.041Z,43.50
2023-05-01T04:59:25.686Z,44.50
2023-05-01T05:01:56.839Z,43.75
2023-05-01T05:04:25.662Z,32.75
2023-05-01T05:06:54.937Z,43.75
2023-05-01T05:09:32.692Z,50.25
2023-05-01T05:12:01.634Z,65.50
2023-05-01T05:14:31.455Z,41.75
2023-05-01T05:17:02.385Z,43.00
2023-05-01T05:19:31.089Z,45.50
2023-05-01T05:22:00.115Z,42.25
2023-05-01T05:24:28.797Z,41.50
2023-05-01T05:26:59.432Z,45.50
2023-05-01T05:29:28.234Z,43.25
2023-05-01T05:31:57.962Z,37.75
2023-05-01T05:34:26.787Z,35.50
2023-05-01T05:36:56.219Z,35.50
2023-05-01T05:39:27.109Z,34.75
2023-05-01T05:41:56.119Z,37.00
2023-05-01T05:44:26.943Z,34.25
2023-05-01T05:46:56.251Z,50.75
2023-05-01T05:49:31.584Z,24.25
2023-05-01T05:52:00.426Z,34.00
2023-05-01T05:54:29.276Z,34.50
2023-05-01T05:56:58.213Z,41.75
2023-05-01T05:59:28.641Z,42.25
2023-05-01T06:01:57.901Z,39.75
2023-05-01T06:04:26.581Z,41.00
2023-05-01T06:06:56.101Z,44.00
2023-05-01T06:09:25.318Z,42.25
2023-05-01T06:11:55.679Z,43.00
2023-05-01T06:14:26.080Z,42.25
2023-05-01T06:16:56.533Z,83.25
2023-05-01T06:19:25.358Z,50.25
2023-05-01T06:22:01.759Z,42.50
2023-05-01T06:24:39.815Z,43.75
2023-05-01T06:27:10.437Z,43.00
2023-05-01T06:29:39.420Z,41.00
2023-05-01T06:32:09.797Z,41.00
2023-05-01T06:34:38.500Z,36.25
2023-05-01T06:37:07.828Z,42.00
2023-05-01T06:39:36.629Z,40.50
2023-05-01T06:42:06.931Z,42.25
2023-05-01T06:44:41.613Z,41.25
2023-05-01T06:47:12.008Z,43.00
2023-05-01T06:49:43.707Z,37.00
2023-05-01T06:52:12.738Z,51.50
2023-05-01T06:54:41.489Z,39.00
2023-05-01T06:57:10.855Z,37.25
2023-05-01T06:59:40.270Z,37.25
2023-05-01T07:02:09.327Z,32.60
2023-05-01T07:04:39.581Z,29.50
2023-05-01T07:07:08.566Z,21.20
2023-05-01T07:09:37.443Z,32.00
2023-05-01T07:12:07.061Z,32.00
2023-05-01T07:14:36.166Z,31.75
2023-05-01T07:17:05.888Z,30.00
2023-05-01T07:19:34.864Z,31.00
2023-05-01T07:22:05.230Z,33.00
2023-05-01T07:24:33.770Z,32.50
2023-05-01T07:27:03.376Z,37.00
2023-05-01T07:29:32.226Z,34.75
2023-05-01T07:32:01.520Z,38.75
2023-05-01T07:34:31.368Z,39.00
2023-05-01T07:37:00.289Z,37.75
2023-05-01T07:39:30.383Z,40.75
2023-05-01T07:41:59.538Z,38.50
2023-05-01T07:44:28.140Z,39.25
2023-05-01T07:46:57.072Z,39.50
2023-05-01T07:49:25.613Z,33.50
2023-05-01T07:51:56.078Z,36.00
2023-05-01T07:54:24.712Z,38.75
2023-05-01T07:56:55.008Z,36.25
2023-05-01T07:59:23.644Z,40.00
2023-05-01T08:01:52.610Z,36.75
2023-05-01T08:04:22.871Z,34.00
2023-05-01T08:06:52.580Z,39.25
2023-05-01T08:09:21.351Z,36.50
2023-05-01T08:11:50.383Z,38.00
2023-05-01T08:14:20.429Z,32.50
2023-05-01T08:16:54.315Z,33.00
2023-05-01T08:19:23.313Z,33.25
2023-05-01T08:21:52.407Z,40.00
2023-05-01T08:24:21.256Z,38.00
2023-05-01T08:26:50.211Z,35.00
2023-05-01T08:29:20.140Z,32.00
2023-05-01T08:31:49.165Z,31.00
2023-05-01T08:34:17.807Z,35.75
2023-05-01T08:36:46.616Z,35.25
2023-05-01T08:39:15.385Z,34.25
2023-05-01T08:41:48.584Z,35.25
2023-05-01T08:44:18.090Z,33.25
2023-05-01T08:46:55.211Z,33.00
2023-05-01T08:49:25.221Z,37.75
2023-05-01T08:51:57.028Z,36.00
2023-05-01T08:54:28.906Z,34.00
2023-05-01T08:57:03.693Z,32.75
2023-05-01T08:59:35.191Z,32.25
2023-05-01T09:02:07.337Z,32.00
2023-05-01T09:04:38.195Z,33.00
2023-05-01T09:07:07.254Z,34.25
2023-05-01T09:09:35.970Z,29.00
2023-05-01T09:12:14.047Z,33.25
2023-05-01T09:14:42.789Z,38.75
2023-05-01T09:17:13.608Z,38.00
2023-05-01T09:19:42.302Z,32.00
2023-05-01T09:22:11.282Z,35.25
2023-05-01T09:24:40.051Z,32.75
2023-05-01T09:27:09.397Z,31.00
2023-05-01T09:29:41.956Z,32.50
2023-05-01T09:32:21.039Z,33.75
2023-05-01T09:34:50.789Z,31.50
2023-05-01T09:37:28.821Z,31.00
2023-05-01T09:40:05.958Z,62.25
2023-05-01T09:42:36.419Z,33.50
2023-05-01T09:45:07.337Z,32.50
2023-05-01T09:47:38.051Z,30.75
2023-05-01T09:50:07.663Z,30.75
2023-05-01T09:52:36.663Z,31.75
2023-05-01T09:55:15.954Z,25.20
2023-05-01T09:57:46.336Z,25.00
2023-05-01T10:00:16.909Z,25.40
2023-05-01T10:02:48.826Z,36.50
2023-05-01T10:05:17.595Z,30.00
2023-05-01T10:07:58.379Z,24.40
2023-05-01T10:10:27.455Z,30.25
2023-05-01T10:12:56.491Z,24.00
2023-05-01T10:15:37.113Z,32.25
2023-05-01T10:18:09.046Z,48.67
2023-05-01T10:20:37.769Z,28.50
2023-05-01T10:23:06.729Z,24.60
2023-05-01T10:25:38.529Z,27.00
2023-05-01T10:28:08.026Z,30.75
2023-05-01T10:30:38.232Z,29.75
2023-05-01T10:33:09.154Z,32.25
2023-05-01T10:35:41.825Z,30.25
2023-05-01T10:38:20.263Z,96.75
2023-05-01T10:40:49.898Z,37.75
2023-05-01T10:43:28.565Z,30.50
2023-05-01T10:46:29.924Z,30.75
2023-05-01T10:49:00.611Z,28.00
2023-05-01T10:51:29.490Z,30.50
2023-05-01T10:54:23.721Z,28.50
2023-05-01T10:56:52.593Z,29.50
2023-05-01T10:59:21.704Z,24.40
2023-05-01T11:01:52.304Z,25.00
2023-05-01T11:04:54.144Z,23.00
2023-05-01T11:07:27.032Z,49.00
2023-05-01T11:09:59.008Z,44.25
2023-05-01T11:12:51.087Z,22.40
2023-05-01T11:15:30.706Z,20.20
2023-05-01T11:18:00.253Z,24.40
2023-05-01T11:20:50.497Z,25.40
2023-05-01T11:23:23.903Z,22.80
2023-05-01T11:26:04.785Z,22.80
2023-05-01T11:28:34.292Z,22.60
2023-05-01T11:31:03.549Z,17.00
2023-05-01T11:33:32.445Z,21.20
2023-05-01T11:36:05.048Z,16.40
2023-05-01T11:38:33.796Z,14.00
2023-05-01T11:41:04.902Z,16.60
2023-05-01T11:43:33.528Z,13.80
2023-05-01T11:46:05.603Z,15.20
2023-05-01T11:48:34.426Z,15.40
2023-05-01T11:51:13.700Z,10.60
2023-05-01T11:53:42.358Z,24.20
2023-05-01T11:56:26.588Z,14.00
2023-05-01T11:58:57.860Z,16.80
2023-05-01T12:01:36.064Z,14.00
2023-05-01T12:04:05.811Z,16.60
2023-05-01T12:06:43.946Z,14.60
2023-05-01T12:09:17.451Z,13.80
2023-05-01T12:11:47.394Z,12.40
2023-05-01T12:14:16.769Z,14.20
2023-05-01T12:16:46.707Z,12.80
2023-05-01T12:19:16.718Z,13.60
2023-05-01T12:21:47.277Z,14.00
2023-05-01T12:24:17.551Z,25.00
2023-05-01T12:26:47.631Z,33.25
2023-05-01T12:29:16.250Z,13.40
2023-05-01T12:31:48.421Z,11.80
2023-05-01T12:34:17.241Z,13.00
2023-05-01T12:36:55.349Z,15.40
2023-05-01T12:39:24.614Z,18.00
2023-05-01T12:41:54.639Z,13.00
2023-05-01T12:44:25.046Z,14.00
2023-05-01T12:47:01.889Z,10.40
2023-05-01T12:49:32.584Z,10.60
2023-05-01T12:52:03.652Z,13.40
2023-05-01T12:54:34.129Z,12.20
2023-05-01T12:57:08.026Z,39.25
2023-05-01T12:59:38.019Z,12.40
2023-05-01T13:02:08.551Z,9.60
2023-05-01T13:04:37.623Z,11.80
2023-05-01T13:07:15.004Z,14.80
2023-05-01T13:09:53.732Z,7.20
2023-05-01T13:12:23.027Z,10.20
2023-05-01T13:14:52.476Z,5.00
2023-05-01T13:17:25.680Z,12.40
2023-05-01T13:19:55.994Z,10.60
2023-05-01T13:22:36.844Z,12.20
2023-05-01T13:25:15.286Z,11.60
2023-05-01T13:27:51.102Z,11.20
2023-05-01T13:30:22.841Z,12.20
2023-05-01T13:32:51.730Z,12.40
2023-05-01T13:35:25.612Z,13.60
2023-05-01T13:37:56.048Z,11.60
2023-05-01T13:40:26.243Z,14.20
2023-05-01T13:42:55.282Z,12.40
2023-05-01T13:45:24.383Z,12.00
2023-05-01T13:47:53.478Z,13.00
2023-05-01T13:50:22.498Z,11.00
2023-05-01T13:52:51.482Z,11.20
2023-05-01T13:55:23.257Z,10.80
2023-05-01T13:57:52.366Z,10.80
2023-05-01T14:00:22.581Z,11.00
2023-05-01T14:02:53.719Z,15.60
2023-05-01T14:05:28.174Z,13.20
2023-05-01T14:07:58.937Z,10.40
2023-05-01T14:10:30.004Z,11.60
2023-05-01T14:13:00.186Z,14.40
2023-05-01T14:15:29.629Z,9.60
2023-05-01T14:18:01.090Z,11.80
2023-05-01T14:20:30.139Z,10.80
2023-05-01T14:23:01.656Z,10.60
2023-05-01T14:25:34.846Z,10.60
2023-05-01T14:28:08.520Z,13.60
2023-05-01T14:30:38.681Z,10.80
2023-05-01T14:33:09.594Z,11.80
2023-05-01T14:35:43.569Z,13.60
2023-05-01T14:38:14.963Z,14.00
2023-05-01T14:40:45.900Z,12.60
2023-05-01T14:43:17.264Z,12.60
2023-05-01T14:45:49.034Z,17.00
2023-05-01T14:48:24.057Z,13.00
2023-05-01T14:50:55.037Z,29.25
2023-05-01T14:53:24.358Z,19.00
2023-05-01T14:55:54.863Z,11.20
2023-05-01T14:58:24.058Z,14.60
2023-05-01T15:00:52.657Z,12.60
2023-05-01T15:03:21.912Z,12.60
2023-05-01T15:05:50.571Z,13.00
2023-05-01T15:08:19.680Z,13.00
2023-05-01T15:10:48.348Z,12.00
2023-05-01T15:13:19.637Z,13.00
2023-05-01T15:15:48.324Z,13.60
2023-05-01T15:18:17.374Z,13.20
2023-05-01T15:20:46.399Z,13.20
2023-05-01T15:23:15.291Z,11.40
2023-05-01T15:25:44.533Z,11.40
2023-05-01T15:28:14.189Z,13.80
2023-05-01T15:30:47.564Z,12.00
2023-05-01T15:33:19.257Z,12.40
2023-05-01T15:35:48.821Z,13.60
2023-05-01T15:38:17.828Z,14.00
2023-05-01T15:40:47.309Z,14.00
2023-05-01T15:43:16.113Z,13.40
2023-05-01T15:45:46.292Z,12.00
2023-05-01T15:48:15.330Z,12.00
2023-05-01T15:50:44.583Z,13.20
2023-05-01T15:53:16.792Z,11.40
2023-05-01T15:55:45.472Z,14.20
2023-05-01T15:58:14.886Z,16.60
2023-05-01T16:00:44.509Z,13.00
2023-05-01T16:03:15.094Z,12.80
2023-05-01T16:05:46.543Z,11.40
2023-05-01T16:08:15.854Z,13.20
2023-05-01T16:10:44.517Z,15.00
2023-05-01T16:13:13.380Z,17.80
2023-05-01T16:15:42.154Z,31.25
2023-05-01T16:18:21.225Z,12.00
2023-05-01T16:20:53.493Z,11.00
2023-05-01T16:23:22.644Z,11.20
2023-05-01T16:25:51.599Z,11.40
2023-05-01T16:28:20.656Z,10.60
2023-05-01T16:30:49.355Z,10.40
2023-05-01T16:33:21.225Z,13.00
2023-05-01T16:35:50.565Z,12.00
2023-05-01T16:38:20.548Z,10.00
2023-05-01T16:40:49.450Z,11.80
2023-05-01T16:43:18.294Z,12.80
2023-05-01T16:45:47.122Z,11.80
2023-05-01T16:48:26.447Z,12.60
2023-05-01T16:50:55.073Z,13.00
2023-05-01T16:53:24.105Z,11.40
2023-05-01T16:55:53.323Z,14.00
2023-05-01T16:58:22.224Z,11.80
2023-05-01T17:00:50.925Z,11.60
2023-05-01T17:03:20.026Z,10.40
2023-05-01T17:05:49.976Z,12.60
2023-05-01T17:08:18.920Z,10.40
2023-05-01T17:10:47.582Z,12.80
2023-05-01T17:13:16.570Z,10.20
2023-05-01T17:15:45.326Z,11.00
2023-05-01T17:18:14.725Z,9.00
2023-05-01T17:20:43.316Z,10.60
2023-05-01T17:23:13.651Z,11.40
2023-05-01T17:25:42.403Z,17.60
2023-05-01T17:28:11.675Z,21.75
2023-05-01T17:30:40.300Z,14.20
2023-05-01T17:33:09.304Z,14.60
2023-05-01T17:35:37.904Z,6.60
2023-05-01T17:38:06.944Z,11.40
2023-05-01T17:40:37.027Z,10.80
2023-05-01T17:43:05.937Z,10.60
2023-05-01T17:45:34.587Z,9.00
2023-05-01T17:48:03.773Z,10.60
2023-05-01T17:50:32.556Z,10.20
2023-05-01T17:53:01.754Z,18.20
2023-05-01T17:55:30.383Z,12.80
2023-05-01T17:58:00.931Z,12.60
2023-05-01T18:00:30.708Z,11.60
2023-05-01T18:03:00.171Z,11.40
2023-05-01T18:05:28.866Z,8.60
2023-05-01T18:07:58.589Z,10.40
2023-05-01T18:10:31.459Z,8.80
2023-05-01T18:13:02.026Z,12.40
2023-05-01T18:15:30.858Z,10.80
2023-05-01T18:18:03.030Z,10.20
2023-05-01T18:20:32.171Z,20.60
2023-05-01T18:23:01.275Z,13.00
2023-05-01T18:25:30.100Z,10.20
2023-05-01T18:27:59.692Z,10.20
2023-05-01T18:30:29.847Z,11.00
2023-05-01T18:32:58.941Z,11.00
2023-05-01T18:35:27.519Z,9.80
2023-05-01T18:37:56.587Z,10.60
2023-05-01T18:40:27.099Z,11.20
2023-05-01T18:42:56.187Z,11.60
2023-05-01T18:45:24.752Z,18.40
2023-05-01T18:47:55.089Z,12.40
2023-05-01T18:50:24.019Z,13.60
2023-05-01T18:52:52.956Z,10.00
2023-05-01T18:55:21.567Z,11.20
2023-05-01T18:57:50.513Z,14.80
2023-05-01T19:00:20.426Z,15.20
2023-05-01T19:02:52.010Z,12.40
2023-05-01T19:05:24.504Z,13.80
2023-05-01T19:07:55.231Z,10.80
2023-05-01T19:10:24.092Z,10.80
2023-05-01T19:12:52.924Z,12.40
2023-05-01T19:15:21.494Z,11.20
2023-05-01T19:17:51.184Z,12.60
2023-05-01T19:20:19.863Z,9.80
2023-05-01T19:22:50.139Z,8.20
2023-05-01T19:25:18.860Z,9.00
2023-05-01T19:27:48.194Z,25.20
2023-05-01T19:30:17.194Z,11.20
2023-05-01T19:32:46.898Z,9.20
2023-05-01T19:35:16.267Z,9.80
2023-05-01T19:37:45.152Z,7.20
2023-05-01T19:40:15.992Z,9.20
2023-05-01T19:42:44.924Z,10.80
2023-05-01T19:45:14.322Z,8.80
2023-05-01T19:47:44.939Z,8.00
2023-05-01T19:50:13.450Z,8.40
2023-05-01T19:52:42.446Z,10.40
2023-05-01T19:55:12.974Z,9.80
2023-05-01T19:57:43.309Z,10.80
2023-05-01T20:00:12.974Z,9.20
2023-05-01T20:02:42.825Z,12.80
2023-05-01T20:05:13.429Z,8.80
2023-05-01T20:07:42.903Z,8.60
2023-05-01T20:10:11.984Z,10.40
2023-05-01T20:12:42.171Z,15.20
2023-05-01T20:15:12.928Z,10.40
2023-05-01T20:17:43.223Z,9.00
2023-05-01T20:20:13.159Z,11.40
2023-05-01T20:22:42.558Z,11.60
2023-05-01T20:25:12.234Z,9.00
2023-05-01T20:27:42.119Z,12.60
2023-05-01T20:30:13.007Z,11.00
2023-05-01T20:32:44.208Z,10.40
2023-05-01T20:35:13.330Z,10.40
2023-05-01T20:37:42.370Z,8.40
2023-05-01T20:40:12.338Z,8.80
2023-05-01T20:42:41.478Z,10.60
2023-05-01T20:45:12.281Z,9.80
2023-05-01T20:47:41.390Z,12.20
2023-05-01T20:50:11.452Z,14.40
2023-05-01T20:52:40.506Z,9.20
2023-05-01T20:55:10.146Z,12.40
2023-05-01T20:57:41.955Z,11.80
2023-05-01T21:00:13.158Z,11.00
2023-05-01T21:02:46.209Z,11.60
2023-05-01T21:05:16.296Z,11.00
2023-05-01T21:07:45.432Z,13.00
2023-05-01T21:10:16.586Z,12.80
2023-05-01T21:12:46.010Z,11.40
2023-05-01T21:15:16.084Z,12.40
2023-05-01T21:17:48.146Z,9.00
2023-05-01T21:20:18.230Z,10.20
2023-05-01T21:22:50.201Z,12.00
2023-05-01T21:25:26.934Z,11.80
2023-05-01T21:27:56.061Z,11.00
2023-05-01T21:30:33.515Z,12.00
2023-05-01T21:33:03.255Z,11.60
2023-05-01T21:35:32.109Z,11.60
2023-05-01T21:38:01.759Z,11.20
2023-05-01T21:40:30.644Z,11.40
2023-05-01T21:43:01.312Z,11.80
2023-05-01T21:45:32.427Z,11.20
2023-05-01T21:48:01.318Z,12.80
2023-05-01T21:50:34.960Z,11.40
2023-05-01T21:53:04.298Z,10.60
2023-05-01T21:55:33.338Z,12.80
2023-05-01T21:58:04.127Z,11.00
2023-05-01T22:00:34.809Z,10.80
2023-05-01T22:03:08.329Z,10.00
2023-05-01T22:05:40.892Z,11.40
2023-05-01T22:08:10.174Z,11.20
2023-05-01T22:10:38.688Z,9.80
2023-05-01T22:13:07.607Z,12.00
2023-05-01T22:15:37.730Z,10.00
2023-05-01T22:18:07.056Z,12.00
2023-05-01T22:20:35.664Z,11.60
2023-05-01T22:23:04.543Z,10.00
2023-05-01T22:25:33.157Z,11.60
2023-05-01T22:28:04.359Z,10.20
2023-05-01T22:30:34.826Z,14.40
2023-05-01T22:33:05.878Z,13.00
2023-05-01T22:35:34.509Z,12.00
2023-05-01T22:38:03.287Z,13.40
2023-05-01T22:40:31.953Z,12.40
2023-05-01T22:43:01.222Z,12.80
2023-05-01T22:45:29.904Z,13.20
2023-05-01T22:47:58.929Z,13.60
2023-05-01T22:50:29.080Z,12.20
2023-05-01T22:52:58.096Z,12.80
2023-05-01T22:55:26.714Z,9.60
2023-05-01T22:57:55.698Z,15.20
2023-05-01T23:00:24.681Z,21.60
2023-05-01T23:02:53.658Z,21.20
2023-05-01T23:05:22.375Z,21.00
2023-05-01T23:07:52.631Z,20.40
2023-05-01T23:10:24.329Z,18.80
2023-05-01T23:12:53.347Z,19.40
2023-05-01T23:15:25.398Z,18.60
2023-05-01T23:17:54.515Z,14.60
2023-05-01T23:20:24.771Z,22.00
2023-05-01T23:22:55.102Z,22.60
2023-05-01T23:25:26.425Z,20.00
2023-05-01T23:27:57.052Z,18.20
2023-05-01T23:30:25.655Z,16.00
2023-05-01T23:32:59.799Z,17.60
2023-05-01T23:35:28.391Z,15.60
2023-05-01T23:37:58.624Z,16.00
2023-05-01T23:40:27.339Z,13.20
2023-05-01T23:42:56.260Z,15.40
2023-05-01T23:45:25.550Z,13.40
2023-05-01T23:47:54.766Z,11.80
2023-05-01T23:50:25.265Z,11.20
2023-05-01T23:52:54.154Z,11.20
2023-05-01T23:55:24.246Z,15.00
2023-05-01T23:57:53.732Z,13.80
